createdAt,value
2018-09-02T00:00:28.357Z,83.42
2018-09-02T00:01:28.394Z,83.14
2018-09-02T00:02:28.387Z,83.58
2018-09-02T00:03:28.380Z,83.58
2018-09-02T00:04:28.420Z,83.29
2018-09-02T00:05:28.382Z,83.38
2018-09-02T00:06:28.373Z,83.48
2018-09-02T00:07:28.709Z,83.67
2018-09-02T00:08:28.382Z,83.29
2018-09-02T00:09:28.381Z,83.67
2018-09-02T00:10:28.393Z,83.76
2018-09-02T00:11:28.389Z,83.86
2018-09-02T00:12:28.405Z,83.95
2018-09-02T00:13:28.404Z,83.76
2018-09-02T00:14:28.404Z,83.76
2018-09-02T00:15:28.416Z,83.67
2018-09-02T00:16:28.396Z,83.58
2018-09-02T00:17:28.400Z,83.38
2018-09-02T00:18:28.408Z,83.95
2018-09-02T00:19:28.413Z,83.76
2018-09-02T00:20:28.473Z,84.25
2018-09-02T00:21:28.386Z,83.95
2018-09-02T00:22:28.413Z,84.25
2018-09-02T00:23:28.421Z,84.34
2018-09-02T00:24:28.422Z,84.44
2018-09-02T00:25:28.436Z,84.72
2018-09-02T00:26:28.459Z,84.91
2018-09-02T00:27:29.112Z,84.91
2018-09-02T00:28:28.433Z,85.01
2018-09-02T00:29:28.416Z,84.72
2018-09-02T00:30:28.452Z,84.82
2018-09-02T00:31:28.440Z,84.72
2018-09-02T00:32:28.439Z,85.21
2018-09-02T00:33:28.466Z,85.3
2018-09-02T00:34:28.447Z,85.21
2018-09-02T00:35:28.419Z,85.21
2018-09-02T00:36:28.452Z,85.21
2018-09-02T00:37:28.808Z,85.49
2018-09-02T00:38:28.489Z,85.21
2018-09-02T00:39:28.478Z,85.01
2018-09-02T00:40:28.454Z,85.11
2018-09-02T00:41:28.452Z,85.49
2018-09-02T00:42:45.220Z,85.97
2018-09-02T00:43:45.532Z,85.58
2018-09-02T00:44:45.243Z,85.88
2018-09-02T00:45:45.241Z,85.3
2018-09-02T00:46:45.216Z,85.78
2018-09-02T00:47:45.214Z,86.45
2018-09-02T00:48:45.225Z,86.25
2018-09-02T00:49:45.231Z,86.25
2018-09-02T00:50:45.234Z,85.49
2018-09-02T00:51:45.246Z,85.58
2018-09-02T00:52:45.226Z,85.49
2018-09-02T00:53:45.228Z,85.88
2018-09-02T00:54:45.227Z,85.68
2018-09-02T00:55:45.233Z,85.39
2018-09-02T00:56:45.213Z,86.45
2018-09-02T00:57:45.280Z,86.25
2018-09-02T00:58:45.225Z,86.25
2018-09-02T00:59:45.261Z,85.88
2018-09-02T01:00:45.233Z,86.35
2018-09-02T01:01:45.240Z,86.74
2018-09-02T01:02:45.257Z,86.45
2018-09-02T01:03:45.610Z,86.35
2018-09-02T01:04:45.226Z,86.54
2018-09-02T01:05:45.233Z,86.25
2018-09-02T01:06:45.250Z,87.02
2018-09-02T01:07:45.258Z,86.25
2018-09-02T01:08:45.268Z,86.54
2018-09-02T01:09:45.261Z,86.93
2018-09-02T01:10:45.243Z,87.02
2018-09-02T01:11:45.251Z,86.93
2018-09-02T01:12:45.617Z,86.74
2018-09-02T01:13:45.252Z,87.41
2018-09-02T01:14:45.254Z,87.7
2018-09-02T01:15:45.267Z,87.5
2018-09-02T01:16:45.243Z,87.41
2018-09-02T01:17:45.258Z,87.79
2018-09-02T01:18:45.697Z,87.88
2018-09-02T01:19:45.261Z,88.08
2018-09-02T01:20:45.258Z,88.46
2018-09-02T01:21:45.274Z,88.37
2018-09-02T01:22:45.269Z,88.13
2018-09-02T01:23:45.292Z,88.9
2018-09-02T01:24:45.269Z,88.75
2018-09-02T01:25:45.332Z,88.8
2018-09-02T01:26:45.278Z,88.7
2018-09-02T01:27:45.286Z,88.51
2018-09-02T01:28:45.287Z,88.9
2018-09-02T01:29:45.284Z,89.57
2018-09-02T01:30:45.257Z,89.09
2018-09-02T01:31:45.300Z,89.18
2018-09-02T01:32:45.269Z,89.57
2018-09-02T01:33:45.278Z,89.28
2018-09-02T01:34:45.284Z,90.33
2018-09-02T01:35:45.301Z,90.14
2018-09-02T01:36:45.336Z,89.95
2018-09-02T01:37:45.303Z,90.23
2018-09-02T01:38:45.309Z,90.62
2018-09-02T01:39:45.289Z,90.72
2018-09-02T01:40:45.321Z,90.14
2018-09-02T01:41:45.307Z,90.14
2018-09-02T01:42:45.312Z,90.43
2018-09-02T01:43:45.310Z,90.53
2018-09-02T01:44:45.316Z,90.43
2018-09-02T01:45:45.329Z,90.43
2018-09-02T01:46:45.292Z,91.1
2018-09-02T01:47:45.610Z,91.1
2018-09-02T01:48:45.315Z,91.49
2018-09-02T01:49:45.314Z,91.96
2018-09-02T01:50:45.319Z,91.39
2018-09-02T01:51:45.331Z,92.15
2018-09-02T01:52:45.334Z,92.35
2018-09-02T01:53:45.304Z,92.44
2018-09-02T01:54:45.327Z,92.73
2018-09-02T01:55:45.318Z,92.63
2018-09-02T01:56:45.329Z,92.82
2018-09-02T01:58:02.178Z,92.73
2018-09-02T01:59:02.095Z,92.92
2018-09-02T02:00:02.138Z,93.02
2018-09-02T02:01:02.598Z,93.59
2018-09-02T02:02:02.115Z,93.4
2018-09-02T02:03:02.098Z,93.98
2018-09-02T02:04:02.096Z,93.4
2018-09-02T02:05:02.103Z,93.78
2018-09-02T02:06:02.146Z,94.26
2018-09-02T02:07:02.118Z,93.98
2018-09-02T02:08:02.129Z,93.21
2018-09-02T02:09:02.130Z,94.4
2018-09-02T02:10:02.104Z,94.79
2018-09-02T02:11:02.123Z,94.5
2018-09-02T02:12:02.118Z,94.26
2018-09-02T02:13:02.125Z,94.98
2018-09-02T02:14:02.136Z,94.89
2018-09-02T02:15:02.172Z,94.4
2018-09-02T02:16:02.160Z,94.64
2018-09-02T02:17:02.195Z,94.98
2018-09-02T02:18:02.157Z,94.98
2018-09-02T02:19:02.126Z,94.6
2018-09-02T02:20:02.171Z,95.17
2018-09-02T02:21:02.144Z,95.17
2018-09-02T02:22:02.151Z,95.65
2018-09-02T02:23:02.163Z,95.03
2018-09-02T02:24:02.130Z,95.36
2018-09-02T02:25:02.137Z,95.46
2018-09-02T02:26:02.136Z,95.75
2018-09-02T02:27:02.153Z,96.03
2018-09-02T02:28:02.198Z,95.36
2018-09-02T02:29:02.158Z,95.46
2018-09-02T02:30:02.181Z,96.13
2018-09-02T02:31:02.172Z,95.84
2018-09-02T02:32:02.145Z,95.94
2018-09-02T02:33:02.148Z,95.56
2018-09-02T02:39:39.168Z,96.51
2018-09-02T02:40:39.023Z,95.84
2018-09-02T02:41:39.078Z,96.51
2018-09-02T02:42:39.034Z,96.13
2018-09-02T02:43:39.040Z,96.42
2018-09-02T02:44:39.050Z,96.47
2018-09-02T02:45:39.055Z,96.51
2018-09-02T02:46:39.061Z,95.75
2018-09-02T02:47:39.072Z,96.22
2018-09-02T02:48:39.078Z,96.22
2018-09-02T02:49:39.050Z,96.89
2018-09-02T02:50:39.059Z,96.22
2018-09-02T02:51:39.060Z,96.42
2018-09-02T02:52:39.089Z,96.8
2018-09-02T02:53:39.041Z,96.22
2018-09-02T02:54:39.152Z,96.32
2018-09-02T02:55:39.055Z,96.22
2018-09-02T02:56:39.061Z,96.8
2018-09-02T02:57:39.068Z,96.13
2018-09-02T02:58:39.080Z,96.03
2018-09-02T02:59:39.085Z,95.94
2018-09-02T03:00:39.090Z,95.84
2018-09-02T03:01:39.067Z,96.22
2018-09-02T03:02:39.074Z,96.32
2018-09-02T03:03:39.088Z,95.75
2018-09-02T03:04:39.080Z,96.13
2018-09-02T03:05:39.105Z,96.7
2018-09-02T03:06:39.103Z,96.42
2018-09-02T03:07:39.101Z,96.42
2018-09-02T03:08:39.089Z,96.42
2018-09-02T03:09:39.119Z,96.27
2018-09-02T03:10:39.131Z,96.51
2018-09-02T03:11:39.101Z,95.94
2018-09-02T03:12:39.102Z,96.51
2018-09-02T03:13:39.121Z,96.51
2018-09-02T03:14:39.111Z,96.42
2018-09-02T03:15:39.124Z,96.42
2018-09-02T03:16:39.098Z,96.42
2018-09-02T03:17:39.104Z,96.22
2018-09-02T03:18:39.123Z,96.7
2018-09-02T03:19:39.109Z,96.99
2018-09-02T03:20:39.117Z,96.8
2018-09-02T03:21:39.095Z,96.89
2018-09-02T03:22:39.093Z,96.8
2018-09-02T03:23:39.176Z,96.7
2018-09-02T03:24:39.113Z,96.89
2018-09-02T03:25:39.113Z,96.89
2018-09-02T03:26:39.130Z,97.28
2018-09-02T03:27:39.137Z,97.28
2018-09-02T03:35:07.133Z,96.89
2018-09-02T03:35:19.392Z,97.56
2018-09-02T03:36:19.407Z,97.28
2018-09-02T03:37:19.410Z,97.66
2018-09-02T03:38:19.375Z,97.56
2018-09-02T03:39:19.407Z,97.66
2018-09-02T03:40:19.385Z,97.56
2018-09-02T03:41:19.390Z,98.05
2018-09-02T03:42:19.398Z,97.28
2018-09-02T03:43:19.406Z,97.47
2018-09-02T03:44:19.413Z,97.66
2018-09-02T03:45:19.400Z,97.75
2018-09-02T03:46:19.392Z,97.75
2018-09-02T03:47:19.411Z,97.85
2018-09-02T03:48:19.409Z,98.14
2018-09-02T03:49:19.414Z,98.33
2018-09-02T03:50:19.428Z,97.75
2018-09-02T03:51:19.384Z,98.81
2018-09-02T03:52:19.406Z,98.05
2018-09-02T03:53:19.407Z,97.95
2018-09-02T03:54:19.439Z,98.24
2018-09-02T03:55:19.410Z,98.52
2018-09-02T03:56:19.417Z,99
2018-09-02T03:57:19.404Z,99.29
2018-09-02T03:58:19.395Z,99.38
2018-09-02T03:59:19.403Z,98.81
2018-09-02T04:00:19.456Z,98.91
2018-09-02T04:01:19.416Z,99.1
2018-09-02T04:02:19.424Z,99
2018-09-02T04:03:19.431Z,99.1
2018-09-02T04:04:19.436Z,99.77
2018-09-02T04:05:19.428Z,99.58
2018-09-02T04:06:19.453Z,99
2018-09-02T04:07:19.422Z,99.99
2018-09-02T04:08:19.437Z,99.99
2018-09-02T04:09:19.436Z,99.96
2018-09-02T04:10:19.437Z,99.87
2018-09-02T04:11:19.539Z,99.87
2018-09-02T04:12:19.456Z,99.67
2018-09-02T04:13:19.450Z,99.77
2018-09-02T04:14:19.438Z,99.67
2018-09-02T04:15:19.441Z,99.96
2018-09-02T04:16:19.444Z,99.87
2018-09-02T04:17:19.483Z,99.87
2018-09-02T04:18:19.491Z,99.38
2018-09-02T04:19:19.502Z,99.96
2018-09-02T04:20:19.474Z,99.77
2018-09-02T04:21:19.452Z,99.58
2018-09-02T04:22:19.487Z,99.87
2018-09-02T04:23:19.460Z,99.77
2018-09-02T04:24:19.468Z,99.87
2018-09-02T04:25:19.439Z,99.96
2018-09-02T04:26:19.486Z,99.77
2018-09-02T04:27:19.449Z,99.99
2018-09-02T04:28:19.458Z,99.99
2018-09-02T04:29:19.462Z,99.99
2018-09-02T04:30:19.470Z,99.99
2018-09-02T04:31:19.475Z,99.99
2018-09-02T04:32:19.490Z,99.99
2018-09-02T04:33:19.490Z,99.99
2018-09-02T04:34:19.466Z,99.99
2018-09-02T04:35:19.505Z,99.99
2018-09-02T04:36:19.475Z,99.99
2018-09-02T04:37:19.486Z,99.99
2018-09-02T04:38:19.523Z,99.99
2018-09-02T04:39:19.493Z,99.99
2018-09-02T04:40:19.506Z,99.99
2018-09-02T04:41:19.539Z,99.99
2018-09-02T04:42:19.493Z,99.99
2018-09-02T04:43:19.487Z,99.99
2018-09-02T04:44:19.500Z,99.99
2018-09-02T04:45:19.629Z,99.99
2018-09-02T04:46:19.487Z,99.99
2018-09-02T04:47:19.478Z,99.99
2018-09-02T04:48:19.488Z,99.99
2018-09-02T04:49:19.528Z,99.99
2018-09-02T04:50:19.672Z,99.99
2018-09-02T04:51:19.511Z,99.99
2018-09-02T04:52:19.527Z,99.99
2018-09-02T04:53:19.516Z,99.99
2018-09-02T04:54:19.647Z,99.99
2018-09-02T04:55:19.502Z,99.99
2018-09-02T04:56:19.505Z,99.99
2018-09-02T04:57:19.518Z,99.99
2018-09-02T04:58:19.541Z,99.99
2018-09-02T04:59:19.531Z,99.99
2018-09-02T05:00:19.595Z,99.99
2018-09-02T05:01:19.541Z,99.99
2018-09-02T05:02:19.563Z,99.99
2018-09-02T05:03:19.516Z,99.99
2018-09-02T05:04:19.523Z,99.99
2018-09-02T05:05:19.529Z,99.99
2018-09-02T05:06:19.512Z,99.99
2018-09-02T05:07:19.524Z,99.99
2018-09-02T05:08:19.528Z,99.99
2018-09-02T05:09:19.522Z,99.99
2018-09-02T05:10:19.538Z,99.99
2018-09-02T05:11:19.547Z,99.99
2018-09-02T05:12:19.548Z,99.99
2018-09-02T05:13:19.549Z,99.99
2018-09-02T05:14:19.562Z,99.99
2018-09-02T05:15:19.641Z,99.99
2018-09-02T05:16:19.532Z,99.99
2018-09-02T05:17:19.538Z,99.99
2018-09-02T05:18:19.549Z,99.99
2018-09-02T05:20:37.123Z,99.99
2018-09-02T05:21:36.808Z,99.99
2018-09-02T05:22:36.781Z,99.99
2018-09-02T05:23:36.794Z,99.99
2018-09-02T05:24:36.796Z,99.99
2018-09-02T05:25:36.831Z,99.99
2018-09-02T05:26:36.780Z,99.99
2018-09-02T05:27:36.775Z,99.99
2018-09-02T05:28:36.815Z,99.99
2018-09-02T05:29:36.796Z,99.99
2018-09-02T05:30:36.795Z,99.99
2018-09-02T05:31:36.810Z,99.99
2018-09-02T05:32:36.809Z,99.99
2018-09-02T05:33:36.863Z,99.99
2018-09-02T05:34:36.783Z,99.99
2018-09-02T05:35:36.789Z,99.99
2018-09-02T05:36:36.916Z,99.99
2018-09-02T05:37:36.801Z,99.99
2018-09-02T05:38:36.812Z,99.99
2018-09-02T05:39:36.838Z,99.99
2018-09-02T05:40:36.857Z,99.99
2018-09-02T05:45:06.689Z,99.99
2018-09-02T05:46:06.383Z,99.99
2018-09-02T05:49:13.162Z,99.99
2018-09-02T05:49:25.384Z,99.99
2018-09-02T05:50:25.386Z,99.99
2018-09-02T05:51:25.402Z,99.99
2018-09-02T05:52:25.368Z,99.99
2018-09-02T05:53:25.390Z,99.99
2018-09-02T05:54:25.404Z,99.99
2018-09-02T05:55:25.456Z,99.99
2018-09-02T05:56:25.376Z,99.99
2018-09-02T05:57:25.401Z,99.99
2018-09-02T05:58:25.409Z,99.99
2018-09-02T05:59:25.387Z,99.99
2018-09-02T06:00:25.387Z,99.99
2018-09-02T06:01:25.436Z,99.99
2018-09-02T06:02:25.401Z,99.99
2018-09-02T06:03:25.398Z,99.99
2018-09-02T06:04:25.378Z,99.99
2018-09-02T06:05:25.457Z,99.99
2018-09-02T06:06:25.395Z,99.99
2018-09-02T06:07:25.403Z,99.99
2018-09-02T06:08:25.400Z,99.99
2018-09-02T06:09:25.443Z,99.99
2018-09-02T06:10:25.413Z,99.99
2018-09-02T06:11:25.454Z,99.99
2018-09-02T06:12:25.410Z,99.99
2018-09-02T06:13:25.399Z,99.99
2018-09-02T06:14:25.420Z,99.99
2018-09-02T06:15:25.416Z,99.99
2018-09-02T06:20:41.420Z,99.99
2018-09-02T06:20:54.048Z,99.99
2018-09-02T06:21:54.022Z,99.99
2018-09-02T06:22:54.068Z,99.99
2018-09-02T06:23:54.041Z,99.99
2018-09-02T06:24:54.044Z,99.99
2018-09-02T06:25:54.036Z,99.99
2018-09-02T06:26:54.023Z,99.99
2018-09-02T06:27:54.029Z,99.99
2018-09-02T06:28:54.110Z,99.99
2018-09-02T06:29:54.130Z,99.99
2018-09-02T06:30:54.046Z,99.99
2018-09-02T06:31:54.053Z,99.99
2018-09-02T06:32:54.124Z,99.99
2018-09-02T06:33:54.041Z,99.99
2018-09-02T06:34:54.042Z,99.99
2018-09-02T06:35:54.152Z,99.99
2018-09-02T06:36:54.055Z,99.99
2018-09-02T06:37:54.070Z,99.99
2018-09-02T06:38:54.068Z,99.99
2018-09-02T06:39:54.065Z,99.99
2018-09-02T06:40:54.043Z,99.99
2018-09-02T06:41:54.060Z,99.99
2018-09-02T06:42:54.092Z,99.99
2018-09-02T06:43:54.079Z,99.99
2018-09-02T06:44:54.146Z,99.99
2018-09-02T06:45:54.136Z,99.99
2018-09-02T06:46:54.050Z,99.99
2018-09-02T06:53:34.673Z,99.99
2018-09-02T06:54:34.623Z,99.99
2018-09-02T06:55:34.618Z,99.99
2018-09-02T06:56:34.623Z,99.99
2018-09-02T06:57:34.641Z,99.99
2018-09-02T06:58:34.737Z,99.99
2018-09-02T06:59:34.645Z,99.99
2018-09-02T07:00:34.619Z,99.99
2018-09-02T07:01:34.630Z,99.99
2018-09-02T07:02:34.663Z,99.99
2018-09-02T07:04:54.462Z,99.99
2018-09-02T07:05:54.418Z,99.99
2018-09-02T07:06:54.491Z,99.99
2018-09-02T07:07:54.429Z,99.99
2018-09-02T07:08:54.438Z,99.99
2018-09-02T07:09:54.441Z,99.99
2018-09-02T07:10:54.429Z,99.99
2018-09-02T07:11:54.458Z,99.99
2018-09-02T07:12:54.429Z,99.99
2018-09-02T07:13:54.466Z,99.99
2018-09-02T07:14:54.437Z,99.99
2018-09-02T07:15:54.492Z,99.99
2018-09-02T07:16:54.462Z,99.99
2018-09-02T07:17:54.478Z,99.99
2018-09-02T07:18:54.533Z,99.99
2018-09-02T07:19:54.464Z,99.99
2018-09-02T07:20:54.443Z,99.99
2018-09-02T07:21:54.460Z,99.99
2018-09-02T07:22:54.456Z,99.99
2018-09-02T07:23:54.459Z,99.99
2018-09-02T07:24:54.468Z,99.99
2018-09-02T07:25:54.485Z,99.99
2018-09-02T07:26:54.455Z,99.99
2018-09-02T07:27:54.472Z,99.99
2018-09-02T07:28:54.460Z,99.99
2018-09-02T07:29:54.504Z,99.99
2018-09-02T07:30:54.496Z,99.99
2018-09-02T07:31:54.459Z,99.99
2018-09-02T07:32:54.468Z,99.99
2018-09-02T07:33:54.495Z,99.99
2018-09-02T07:34:54.517Z,99.99
2018-09-02T07:35:54.469Z,99.99
2018-09-02T07:36:54.491Z,99.99
2018-09-02T07:37:54.518Z,99.99
2018-09-02T07:38:54.510Z,99.99
2018-09-02T07:39:54.464Z,99.99
2018-09-02T07:40:54.488Z,99.99
2018-09-02T07:45:24.541Z,99.99
2018-09-02T07:46:24.574Z,99.99
2018-09-02T07:50:53.683Z,99.99
2018-09-02T07:51:53.695Z,99.99
2018-09-02T07:52:53.712Z,99.99
2018-09-02T07:53:53.665Z,99.99
2018-09-02T07:54:53.712Z,99.99
2018-09-02T07:55:53.694Z,99.99
2018-09-02T07:56:53.668Z,99.99
2018-09-02T07:57:53.695Z,99.99
2018-09-02T07:58:53.703Z,99.99
2018-09-02T07:59:53.912Z,99.99
2018-09-02T08:00:53.680Z,99.99
2018-09-02T08:01:53.721Z,99.99
2018-09-02T08:02:53.730Z,99.99
2018-09-02T08:03:53.667Z,99.99
2018-09-02T08:04:53.708Z,99.99
2018-09-02T08:05:53.712Z,99.99
2018-09-02T08:06:53.686Z,99.99
2018-09-02T08:07:53.713Z,99.99
2018-09-02T08:08:53.700Z,99.99
2018-09-02T08:09:53.680Z,99.99
2018-09-02T08:10:53.683Z,99.99
2018-09-02T08:11:53.685Z,99.99
2018-09-02T08:12:53.837Z,99.99
2018-09-02T08:13:53.702Z,99.99
2018-09-02T08:14:53.817Z,99.99
2018-09-02T08:15:53.714Z,99.99
2018-09-02T08:16:53.715Z,99.99
2018-09-02T08:17:53.688Z,99.99
2018-09-02T08:18:53.710Z,99.99
2018-09-02T08:19:54.409Z,99.99
2018-09-02T08:20:53.720Z,99.99
2018-09-02T08:21:53.717Z,99.99
2018-09-02T08:22:53.734Z,99.99
2018-09-02T08:23:53.704Z,99.99
2018-09-02T08:24:53.835Z,99.99
2018-09-02T08:25:53.716Z,99.99
2018-09-02T08:26:53.713Z,99.99
2018-09-02T08:27:53.723Z,99.99
2018-09-02T08:28:53.736Z,99.99
2018-09-02T08:29:53.736Z,99.99
2018-09-02T08:30:53.773Z,99.99
2018-09-02T08:31:53.729Z,99.99
2018-09-02T08:32:53.840Z,99.99
2018-09-02T08:33:53.729Z,99.99
2018-09-02T08:34:53.731Z,99.99
2018-09-02T08:35:53.742Z,99.99
2018-09-02T08:36:53.745Z,99.99
2018-09-02T08:37:53.799Z,99.99
2018-09-02T08:38:53.843Z,99.99
2018-09-02T08:39:53.729Z,99.99
2018-09-02T08:40:53.751Z,99.99
2018-09-02T08:41:53.750Z,99.99
2018-09-02T08:42:53.766Z,99.99
2018-09-02T08:43:53.775Z,99.99
2018-09-02T08:44:53.765Z,99.99
2018-09-02T08:45:53.735Z,99.99
2018-09-02T08:51:10.918Z,99.99
2018-09-02T08:51:23.502Z,99.99
2018-09-02T08:52:23.511Z,99.99
2018-09-02T08:53:23.513Z,99.99
2018-09-02T08:54:23.484Z,99.99
2018-09-02T08:55:23.525Z,99.99
2018-09-02T08:56:23.499Z,99.99
2018-09-02T08:57:23.538Z,99.99
2018-09-02T08:58:23.518Z,99.99
2018-09-02T08:59:23.518Z,99.99
2018-09-02T09:00:23.523Z,99.99
2018-09-02T09:01:23.513Z,99.99
2018-09-02T09:02:23.540Z,99.99
2018-09-02T09:03:23.518Z,99.99
2018-09-02T09:04:23.519Z,99.99
2018-09-02T09:05:23.519Z,99.99
2018-09-02T09:06:23.497Z,99.99
2018-09-02T09:07:23.579Z,99.99
2018-09-02T09:08:23.836Z,99.99
2018-09-02T09:09:23.552Z,99.99
2018-09-02T09:10:23.532Z,99.99
2018-09-02T09:11:23.534Z,99.99
2018-09-02T09:12:23.539Z,99.99
2018-09-02T09:13:23.540Z,99.99
2018-09-02T09:14:23.516Z,99.99
2018-09-02T09:15:23.519Z,99.99
2018-09-02T09:16:23.626Z,99.99
2018-09-02T09:17:23.538Z,99.99
2018-09-02T09:18:23.609Z,99.99
2018-09-02T09:19:23.512Z,99.99
2018-09-02T09:20:23.826Z,99.99
2018-09-02T09:21:23.594Z,99.99
2018-09-02T09:22:23.532Z,99.99
2018-09-02T09:23:23.542Z,99.99
2018-09-02T09:24:23.541Z,99.99
2018-09-02T09:25:23.554Z,99.99
2018-09-02T09:26:23.527Z,99.99
2018-09-02T09:27:23.537Z,99.99
2018-09-02T09:28:23.570Z,99.99
2018-09-02T09:29:23.550Z,99.99
2018-09-02T09:30:23.578Z,99.99
2018-09-02T09:31:23.566Z,99.99
2018-09-02T09:32:24.302Z,99.99
2018-09-02T09:33:23.536Z,99.99
2018-09-02T09:34:23.548Z,99.99
2018-09-02T09:35:23.549Z,99.99
2018-09-02T09:36:23.591Z,99.99
2018-09-02T09:37:23.607Z,99.99
2018-09-02T09:38:23.502Z,99.99
2018-09-02T09:39:23.538Z,99.99
2018-09-02T09:40:23.580Z,99.99
2018-09-02T09:41:23.576Z,99.99
2018-09-02T09:42:23.568Z,99.99
2018-09-02T09:43:23.567Z,99.99
2018-09-02T09:44:23.640Z,99.99
2018-09-02T09:45:23.575Z,99.99
2018-09-02T09:46:23.584Z,99.99
2018-09-02T09:47:23.590Z,99.99
2018-09-02T09:48:23.564Z,99.99
2018-09-02T09:49:23.577Z,99.99
2018-09-02T09:50:23.621Z,99.99
2018-09-02T09:51:23.616Z,99.99
2018-09-02T09:52:23.589Z,99.99
2018-09-02T09:53:23.595Z,99.99
2018-09-02T09:55:43.259Z,99.99
2018-09-02T09:56:43.189Z,99.99
2018-09-02T09:57:43.151Z,99.99
2018-09-02T09:58:43.161Z,99.99
2018-09-02T09:59:43.183Z,99.99
2018-09-02T10:00:43.167Z,99.99
2018-09-02T10:01:43.229Z,99.99
2018-09-02T10:02:43.190Z,99.99
2018-09-02T10:03:43.318Z,99.99
2018-09-02T10:04:43.202Z,99.99
2018-09-02T10:05:43.167Z,99.99
2018-09-02T10:06:43.169Z,99.99
2018-09-02T10:07:43.203Z,99.99
2018-09-02T10:08:43.194Z,99.99
2018-09-02T10:09:43.189Z,99.99
2018-09-02T10:10:43.270Z,99.99
2018-09-02T10:11:43.317Z,99.99
2018-09-02T10:12:43.211Z,99.99
2018-09-02T10:13:43.215Z,99.99
2018-09-02T10:14:43.241Z,99.99
2018-09-02T10:15:43.203Z,99.99
2018-09-02T10:16:43.202Z,99.99
2018-09-02T10:17:43.214Z,99.99
2018-09-02T10:18:43.226Z,99.99
2018-09-02T10:19:43.765Z,99.99
2018-09-02T10:20:43.506Z,99.99
2018-09-02T10:21:43.226Z,99.99
2018-09-02T10:22:43.233Z,99.99
2018-09-02T10:23:43.215Z,99.99
2018-09-02T10:24:43.225Z,99.99
2018-09-02T10:25:59.957Z,99.99
2018-09-02T10:27:00.267Z,99.99
2018-09-02T10:27:59.966Z,99.99
2018-09-02T10:28:59.973Z,99.99
2018-09-02T10:29:59.978Z,99.99
2018-09-02T10:30:59.987Z,99.99
2018-09-02T10:31:59.968Z,99.99
2018-09-02T10:33:00.002Z,99.99
2018-09-02T10:33:59.974Z,99.99
2018-09-02T10:35:00.018Z,99.99
2018-09-02T10:35:59.998Z,99.99
2018-09-02T10:36:59.991Z,99.99
2018-09-02T10:38:00.137Z,99.99
2018-09-02T10:38:59.976Z,99.99
2018-09-02T10:40:00.012Z,99.99
2018-09-02T10:40:59.995Z,99.99
2018-09-02T10:41:59.997Z,99.99
2018-09-02T10:42:59.992Z,99.99
2018-09-02T10:44:00.039Z,99.99
2018-09-02T10:44:59.985Z,99.99
2018-09-02T10:45:59.989Z,99.99
2018-09-02T10:46:59.995Z,99.99
2018-09-02T10:48:00.036Z,99.99
2018-09-02T10:49:00.011Z,99.99
2018-09-02T10:50:00.019Z,99.99
2018-09-02T10:51:01.383Z,99.99
2018-09-02T10:52:00.022Z,99.99
2018-09-02T10:53:00.133Z,99.99
2018-09-02T10:54:00.005Z,99.99
2018-09-02T10:55:00.008Z,99.99
2018-09-02T10:56:00.019Z,99.99
2018-09-02T10:57:00.394Z,99.99
2018-09-02T10:58:00.045Z,99.99
2018-09-02T10:59:00.022Z,99.99
2018-09-02T11:00:00.044Z,99.99
2018-09-02T11:01:00.068Z,99.99
2018-09-02T11:02:00.039Z,99.99
2018-09-02T11:03:00.104Z,99.99
2018-09-02T11:04:00.040Z,99.99
2018-09-02T11:05:00.077Z,99.99
2018-09-02T11:06:00.047Z,99.99
2018-09-02T11:07:00.129Z,99.99
2018-09-02T11:08:00.234Z,99.99
2018-09-02T11:09:00.069Z,99.99
2018-09-02T11:10:00.215Z,99.99
2018-09-02T11:11:00.084Z,99.99
2018-09-02T11:12:00.071Z,99.99
2018-09-02T11:13:00.161Z,99.99
2018-09-02T11:14:00.293Z,99.99
2018-09-02T11:15:00.079Z,99.99
2018-09-02T11:16:00.076Z,99.99
2018-09-02T11:17:00.129Z,99.99
2018-09-02T11:18:00.199Z,99.99
2018-09-02T11:19:00.163Z,99.99
2018-09-02T11:20:00.038Z,99.99
2018-09-02T11:21:00.079Z,99.99
2018-09-02T11:22:00.130Z,99.99
2018-09-02T11:23:00.060Z,99.99
2018-09-02T11:24:00.059Z,99.99
2018-09-02T11:25:00.080Z,99.99
2018-09-02T11:26:00.071Z,99.99
2018-09-02T11:27:00.076Z,99.99
2018-09-02T11:28:00.121Z,99.99
2018-09-02T11:29:00.057Z,99.99
2018-09-02T11:30:00.063Z,99.99
2018-09-02T11:31:00.069Z,99.99
2018-09-02T11:32:00.104Z,99.99
2018-09-02T11:33:00.088Z,99.99
2018-09-02T11:34:00.183Z,99.99
2018-09-02T11:35:00.095Z,99.99
2018-09-02T11:36:00.138Z,99.99
2018-09-02T11:37:00.079Z,99.99
2018-09-02T11:38:00.118Z,99.99
2018-09-02T11:39:00.098Z,99.99
2018-09-02T11:40:00.132Z,99.99
2018-09-02T11:41:00.089Z,99.99
2018-09-02T11:42:00.113Z,99.99
2018-09-02T11:43:00.118Z,99.99
2018-09-02T11:44:00.094Z,99.99
2018-09-02T11:45:00.214Z,99.99
2018-09-02T11:46:00.110Z,99.99
2018-09-02T11:47:00.292Z,99.99
2018-09-02T11:48:00.125Z,99.99
2018-09-02T11:49:00.127Z,99.99
2018-09-02T11:50:00.098Z,99.99
2018-09-02T11:51:00.134Z,99.99
2018-09-02T11:52:00.116Z,99.99
2018-09-02T11:53:00.167Z,99.99
2018-09-02T11:54:00.131Z,99.99
2018-09-02T11:55:00.205Z,99.99
2018-09-02T11:56:00.139Z,99.99
2018-09-02T11:57:00.343Z,99.99
2018-09-02T11:58:00.128Z,99.99
2018-09-02T11:59:00.163Z,99.99
2018-09-02T12:00:00.146Z,99.99
2018-09-02T12:01:00.164Z,99.99
2018-09-02T12:02:00.183Z,99.99
2018-09-02T12:03:00.145Z,99.99
2018-09-02T12:04:00.283Z,99.99
2018-09-02T12:05:00.200Z,99.99
2018-09-02T12:06:00.149Z,99.99
2018-09-02T12:07:00.152Z,99.99
2018-09-02T12:08:00.187Z,99.99
2018-09-02T12:09:00.197Z,99.99
2018-09-02T12:10:00.130Z,99.99
2018-09-02T12:11:01.438Z,99.99
2018-09-02T12:12:00.149Z,99.99
2018-09-02T12:13:00.187Z,99.99
2018-09-02T12:14:00.190Z,99.99
2018-09-02T12:15:00.219Z,99.99
2018-09-02T12:16:00.168Z,99.99
2018-09-02T12:17:00.219Z,99.99
2018-09-02T12:18:00.147Z,99.99
2018-09-02T12:19:00.632Z,99.99
2018-09-02T12:20:00.160Z,99.99
2018-09-02T12:21:00.191Z,99.99
2018-09-02T12:22:00.199Z,99.99
2018-09-02T12:23:00.153Z,99.99
2018-09-02T12:24:00.259Z,99.99
2018-09-02T12:25:00.165Z,99.99
2018-09-02T12:26:00.198Z,99.99
2018-09-02T12:27:00.170Z,99.99
2018-09-02T12:28:00.191Z,99.99
2018-09-02T12:29:00.254Z,99.99
2018-09-02T12:30:00.161Z,99.99
2018-09-02T12:31:00.153Z,99.99
2018-09-02T12:32:00.203Z,99.99
2018-09-02T12:33:00.191Z,99.99
2018-09-02T12:34:00.196Z,99.99
2018-09-02T12:35:00.227Z,99.99
2018-09-02T12:36:00.197Z,99.99
2018-09-02T12:37:00.267Z,99.99
2018-09-02T12:38:04.127Z,99.99
2018-09-02T12:39:00.212Z,99.99
2018-09-02T12:40:00.228Z,99.99
2018-09-02T12:41:00.291Z,99.99
2018-09-02T12:42:00.201Z,99.99
2018-09-02T12:43:00.246Z,99.99
2018-09-02T12:44:00.219Z,99.99
2018-09-02T12:45:00.187Z,99.99
2018-09-02T12:46:00.246Z,99.99
2018-09-02T12:47:00.203Z,99.99
2018-09-02T12:48:00.435Z,99.99
2018-09-02T12:49:00.243Z,99.99
2018-09-02T12:50:00.224Z,99.99
2018-09-02T12:51:00.185Z,99.99
2018-09-02T12:52:00.203Z,99.99
2018-09-02T12:53:00.266Z,99.99
2018-09-02T12:54:00.209Z,99.99
2018-09-02T12:55:00.289Z,99.99
2018-09-02T12:56:00.216Z,99.99
2018-09-02T12:57:00.238Z,99.99
2018-09-02T12:58:00.237Z,99.99
2018-09-02T12:59:00.202Z,99.99
2018-09-02T13:00:00.215Z,99.99
2018-09-02T13:01:00.249Z,99.99
2018-09-02T13:02:00.292Z,99.99
2018-09-02T13:03:00.229Z,99.99
2018-09-02T13:04:00.283Z,99.99
2018-09-02T13:05:00.206Z,99.99
2018-09-02T13:06:00.249Z,99.99
2018-09-02T13:07:00.271Z,99.99
2018-09-02T13:08:00.229Z,99.99
2018-09-02T13:09:00.279Z,99.99
2018-09-02T13:10:00.277Z,99.99
2018-09-02T13:11:00.248Z,99.99
2018-09-02T13:12:00.236Z,99.99
2018-09-02T13:13:00.270Z,99.99
2018-09-02T13:14:00.271Z,99.99
2018-09-02T13:15:00.237Z,99.99
2018-09-02T13:16:00.243Z,99.99
2018-09-02T13:17:00.255Z,99.99
2018-09-02T13:18:00.256Z,99.99
2018-09-02T13:20:00.256Z,99.99
2018-09-02T13:21:00.477Z,99.99
2018-09-02T13:22:00.283Z,99.99
2018-09-02T13:23:00.267Z,99.99
2018-09-02T13:24:00.422Z,99.99
2018-09-02T13:25:00.275Z,99.99
2018-09-02T13:26:37.526Z,99.99
2018-09-02T13:27:37.531Z,99.99
2018-09-02T13:28:37.499Z,99.99
2018-09-02T13:29:37.503Z,99.99
2018-09-02T13:30:37.650Z,99.99
2018-09-02T13:31:37.532Z,99.99
2018-09-02T13:32:37.669Z,99.99
2018-09-02T13:33:37.864Z,99.99
2018-09-02T13:34:37.608Z,99.99
2018-09-02T13:35:37.531Z,99.99